createdAt,value
2019-04-19T00:00:04.557Z,1021.63
2019-04-19T00:00:37.873Z,1021.68
2019-04-19T00:01:14.505Z,1021.68
2019-04-19T00:01:57.069Z,1021.66
2019-04-19T00:02:30.648Z,1021.64
2019-04-19T00:03:00.273Z,1021.62
2019-04-19T00:03:37.691Z,1021.67
2019-04-19T00:04:14.977Z,1021.67
2019-04-19T00:04:51.724Z,1021.69
2019-04-19T00:05:24.202Z,1021.66
2019-04-19T00:05:58.105Z,1021.67
2019-04-19T00:06:36.521Z,1021.67
2019-04-19T00:07:13.086Z,1021.67
2019-04-19T00:07:47.971Z,1021.68
2019-04-19T00:08:34.736Z,1021.69
2019-04-19T00:09:09.056Z,1021.74
2019-04-19T00:09:38.797Z,1021.69
2019-04-19T00:10:18.261Z,1021.65
2019-04-19T00:10:48.349Z,1021.66
2019-04-19T00:11:24.335Z,1021.64
2019-04-19T00:12:01.902Z,1021.66
2019-04-19T00:12:34.968Z,1021.68
2019-04-19T00:13:03.373Z,1021.65
2019-04-19T00:13:36.718Z,1021.67
2019-04-19T00:14:11.227Z,1021.63
2019-04-19T00:14:46.691Z,1021.64
2019-04-19T00:15:22.449Z,1021.64
2019-04-19T00:15:58.337Z,1021.69
2019-04-19T00:16:32.294Z,1021.65
2019-04-19T00:17:13.919Z,1021.63
2019-04-19T00:17:43.952Z,1021.63
2019-04-19T00:18:19.671Z,1021.61
2019-04-19T00:19:14.134Z,1021.68
2019-04-19T00:19:45.541Z,1021.60
2019-04-19T00:20:25.603Z,1021.62
2019-04-19T00:20:55.723Z,1021.63
2019-04-19T00:21:27.853Z,1021.63
2019-04-19T00:22:24.897Z,1021.61
2019-04-19T00:22:44.625Z,1021.60
2019-04-19T00:23:13.179Z,1021.58
2019-04-19T00:23:40.820Z,1021.64
2019-04-19T00:24:12.131Z,1021.60
2019-04-19T00:24:47.875Z,1021.61
2019-04-19T00:25:23.752Z,1021.62
2019-04-19T00:25:58.177Z,1021.61
2019-04-19T00:26:33.869Z,1021.57
2019-04-19T00:27:09.725Z,1021.60
2019-04-19T00:27:49.377Z,1021.59
2019-04-19T00:28:31.301Z,1021.58
2019-04-19T00:29:00.572Z,1021.56
2019-04-19T00:29:40.623Z,1021.61
2019-04-19T00:30:17.979Z,1021.58
2019-04-19T00:30:51.867Z,1021.60
2019-04-19T00:31:29.499Z,1021.57
2019-04-19T00:32:08.136Z,1021.60
2019-04-19T00:32:38.468Z,1021.60
2019-04-19T00:33:14.720Z,1021.59
2019-04-19T00:33:43.461Z,1021.59
2019-04-19T00:34:14.570Z,1021.62
2019-04-19T00:34:48.942Z,1021.58
2019-04-19T00:35:24.393Z,1021.60
2019-04-19T00:36:00.203Z,1021.60
2019-04-19T00:36:34.870Z,1021.59
2019-04-19T00:37:09.976Z,1021.58
2019-04-19T00:37:44.983Z,1021.59
2019-04-19T00:38:35.903Z,1021.58
2019-04-19T00:39:15.386Z,1021.56
2019-04-19T00:39:45.556Z,1021.57
2019-04-19T00:40:21.500Z,1021.55
2019-04-19T00:41:00.032Z,1021.60
2019-04-19T00:41:34.050Z,1021.60
2019-04-19T00:42:11.812Z,1021.60
2019-04-19T00:42:46.098Z,1021.58
2019-04-19T00:43:18.872Z,1021.60
2019-04-19T00:43:53.537Z,1021.59
2019-04-19T00:44:39.905Z,1021.62
2019-04-19T00:45:10.556Z,1021.56
2019-04-19T00:45:38.659Z,1021.61
2019-04-19T00:46:16.027Z,1021.63
2019-04-19T00:46:59.767Z,1021.63
2019-04-19T00:47:30.214Z,1021.62
2019-04-19T00:47:58.625Z,1021.60
2019-04-19T00:48:36.043Z,1021.63
2019-04-19T00:49:11.218Z,1021.62
2019-04-19T00:49:48.965Z,1021.60
2019-04-19T00:50:18.556Z,1021.58
2019-04-19T00:50:57.905Z,1021.61
2019-04-19T00:51:38.574Z,1021.61
2019-04-19T00:52:08.864Z,1021.65
2019-04-19T00:52:52.229Z,1021.60
2019-04-19T00:53:20.860Z,1021.63
2019-04-19T00:53:51.979Z,1021.61
2019-04-19T00:54:24.912Z,1021.61
2019-04-19T00:55:02.233Z,1021.59
2019-04-19T00:55:42.040Z,1021.59
2019-04-19T00:56:09.617Z,1021.59
2019-04-19T00:56:46.699Z,1021.59
2019-04-19T00:57:23.692Z,1021.58
2019-04-19T00:57:53.643Z,1021.59
2019-04-19T00:58:29.748Z,1021.59
2019-04-19T00:59:05.141Z,1021.62
2019-04-19T00:59:40.452Z,1021.60
2019-04-19T01:00:17.296Z,1021.57
2019-04-19T01:00:46.537Z,1021.58
2019-04-19T01:01:24.594Z,1021.63
2019-04-19T01:02:04.495Z,1021.59
2019-04-19T01:02:34.331Z,1021.57
2019-04-19T01:03:10.945Z,1021.58
2019-04-19T01:03:46.247Z,1021.62
2019-04-19T01:04:22.758Z,1021.62
2019-04-19T01:04:57.270Z,1021.60
2019-04-19T01:05:31.896Z,1021.64
2019-04-19T01:06:09.021Z,1021.63
2019-04-19T01:06:43.930Z,1021.61
2019-04-19T01:07:23.025Z,1021.67
2019-04-19T01:07:51.577Z,1021.65
2019-04-19T01:08:27.625Z,1021.64
2019-04-19T01:09:20.139Z,1021.68
2019-04-19T01:09:46.429Z,1021.66
2019-04-19T01:10:29.246Z,1021.65
2019-04-19T01:11:02.505Z,1021.71
2019-04-19T01:11:34.048Z,1021.63
2019-04-19T01:12:13.076Z,1021.67
2019-04-19T01:12:50.033Z,1021.67
2019-04-19T01:13:17.817Z,1021.66
2019-04-19T01:13:58.930Z,1021.66
2019-04-19T01:14:30.057Z,1021.67
2019-04-19T01:15:05.739Z,1021.68
2019-04-19T01:15:40.435Z,1021.70
2019-04-19T01:16:17.137Z,1021.69
2019-04-19T01:16:57.551Z,1021.68
2019-04-19T01:17:30.549Z,1021.72
2019-04-19T01:18:10.646Z,1021.71
2019-04-19T01:18:40.000Z,1021.70
2019-04-19T01:19:08.066Z,1021.70
2019-04-19T01:19:45.042Z,1021.73
2019-04-19T01:20:14.447Z,1021.71
2019-04-19T01:20:48.525Z,1021.74
2019-04-19T01:21:23.989Z,1021.74
2019-04-19T01:22:01.832Z,1021.74
2019-04-19T01:22:36.239Z,1021.71
2019-04-19T01:23:13.163Z,1021.72
2019-04-19T01:23:48.865Z,1021.75
2019-04-19T01:24:29.204Z,1021.74
2019-04-19T01:24:56.688Z,1021.76
2019-04-19T01:25:33.604Z,1021.74
2019-04-19T01:26:10.705Z,1021.75
2019-04-19T01:26:47.638Z,1021.76
2019-04-19T01:27:23.251Z,1021.75
2019-04-19T01:27:57.586Z,1021.77
2019-04-19T01:28:30.590Z,1021.77
2019-04-19T01:29:10.396Z,1021.76
2019-04-19T01:29:46.438Z,1021.74
2019-04-19T01:30:19.109Z,1021.77
2019-04-19T01:30:50.833Z,1021.80
2019-04-19T01:31:29.046Z,1021.75
2019-04-19T01:32:07.799Z,1021.77
2019-04-19T01:32:44.356Z,1021.77
2019-04-19T01:33:12.542Z,1021.80
2019-04-19T01:33:49.065Z,1021.76
2019-04-19T01:34:27.594Z,1021.75
2019-04-19T01:35:05.981Z,1021.74
2019-04-19T01:35:42.375Z,1021.78
2019-04-19T01:36:10.318Z,1021.77
2019-04-19T01:36:48.064Z,1021.75
2019-04-19T01:37:23.629Z,1021.74
2019-04-19T01:37:59.475Z,1021.73
2019-04-19T01:38:37.518Z,1021.76
2019-04-19T01:39:21.893Z,1021.77
2019-04-19T01:40:00.701Z,1021.73
2019-04-19T01:40:29.594Z,1021.76
2019-04-19T01:41:09.727Z,1021.76
2019-04-19T01:41:37.128Z,1021.79
2019-04-19T01:42:21.091Z,1021.77
2019-04-19T01:42:53.921Z,1021.77
2019-04-19T01:43:36.990Z,1021.77
2019-04-19T01:44:06.548Z,1021.78
2019-04-19T01:44:38.995Z,1021.76
2019-04-19T01:45:13.521Z,1021.75
2019-04-19T01:45:56.777Z,1021.78
2019-04-19T01:46:31.675Z,1021.76
2019-04-19T01:47:00.727Z,1021.79
2019-04-19T01:47:36.226Z,1021.78
2019-04-19T01:48:18.668Z,1021.74
2019-04-19T01:48:48.192Z,1021.71
2019-04-19T01:49:19.424Z,1021.73
2019-04-19T01:49:59.623Z,1021.73
2019-04-19T01:50:42.369Z,1021.76
2019-04-19T01:51:09.774Z,1021.77
2019-04-19T01:51:49.012Z,1021.71
2019-04-19T01:52:30.856Z,1021.75
2019-04-19T01:53:03.363Z,1021.75
2019-04-19T01:53:33.519Z,1021.75
2019-04-19T01:54:12.766Z,1021.76
2019-04-19T01:54:41.159Z,1021.74
2019-04-19T01:55:09.814Z,1021.80
2019-04-19T01:55:39.983Z,1021.77
2019-04-19T01:56:17.176Z,1021.77
2019-04-19T01:56:55.104Z,1021.82
2019-04-19T01:57:24.235Z,1021.79
2019-04-19T01:58:02.463Z,1021.80
2019-04-19T01:58:38.829Z,1021.80
2019-04-19T01:59:09.619Z,1021.80
2019-04-19T01:59:50.240Z,1021.85
2019-04-19T02:00:29.184Z,1021.81
2019-04-19T02:00:58.559Z,1021.83
2019-04-19T02:01:33.183Z,1021.83
2019-04-19T02:02:11.703Z,1021.86
2019-04-19T02:02:46.867Z,1021.80
2019-04-19T02:03:18.643Z,1021.82
2019-04-19T02:03:53.931Z,1021.86
2019-04-19T02:04:31.161Z,1021.86
2019-04-19T02:05:07.143Z,1021.85
2019-04-19T02:05:43.787Z,1021.80
2019-04-19T02:06:16.243Z,1021.84
2019-04-19T02:06:50.872Z,1021.82
2019-04-19T02:07:27.921Z,1021.87
2019-04-19T02:08:03.504Z,1021.85
2019-04-19T02:08:43.217Z,1021.84
2019-04-19T02:09:11.304Z,1021.87
2019-04-19T02:09:59.263Z,1021.86
2019-04-19T02:10:37.735Z,1021.85
2019-04-19T02:11:05.433Z,1021.85
2019-04-19T02:11:41.782Z,1021.88
2019-04-19T02:12:22.530Z,1021.87
2019-04-19T02:12:51.245Z,1021.86
2019-04-19T02:13:26.873Z,1021.89
2019-04-19T02:14:04.804Z,1021.91
2019-04-19T02:14:37.733Z,1021.89
2019-04-19T02:15:11.103Z,1021.90
2019-04-19T02:15:46.233Z,1021.91
2019-04-19T02:16:20.073Z,1021.92
2019-04-19T02:16:55.856Z,1021.93
2019-04-19T02:17:33.399Z,1021.94
2019-04-19T02:18:03.144Z,1021.96
2019-04-19T02:18:37.404Z,1021.95
2019-04-19T02:19:17.825Z,1021.95
2019-04-19T02:19:55.067Z,1021.97
2019-04-19T02:20:26.953Z,1021.98
2019-04-19T02:20:58.621Z,1021.97
2019-04-19T02:21:36.291Z,1021.96
2019-04-19T02:22:16.099Z,1021.96
2019-04-19T02:22:47.671Z,1021.99
2019-04-19T02:23:20.166Z,1021.98
2019-04-19T02:23:58.822Z,1021.99
2019-04-19T02:24:37.332Z,1022.00
2019-04-19T02:25:12.588Z,1021.98
2019-04-19T02:25:41.561Z,1022.00
2019-04-19T02:26:19.658Z,1022.02
2019-04-19T02:26:57.603Z,1021.99
2019-04-19T02:27:33.190Z,1022.02
2019-04-19T02:28:02.649Z,1021.98
2019-04-19T02:28:40.708Z,1021.99
2019-04-19T02:29:17.750Z,1022.00
2019-04-19T02:29:58.441Z,1021.98
2019-04-19T02:30:36.814Z,1022.01
2019-04-19T02:31:24.219Z,1022.00
2019-04-19T02:32:04.807Z,1021.96
2019-04-19T02:32:27.763Z,1022.00
2019-04-19T02:33:12.851Z,1021.98
2019-04-19T02:34:29.177Z,1022.00
2019-04-19T02:34:56.918Z,1021.99
2019-04-19T02:35:34.955Z,1021.97
2019-04-19T02:36:10.496Z,1022.02
2019-04-19T02:36:58.032Z,1022.00
2019-04-19T02:38:00.139Z,1022.05
2019-04-19T02:38:31.198Z,1022.03
2019-04-19T02:39:19.318Z,1022.05
2019-04-19T02:41:13.970Z,1022.03
2019-04-19T02:41:38.485Z,1022.05
2019-04-19T02:42:12.202Z,1022.05
2019-04-19T02:42:38.218Z,1022.07
2019-04-19T02:43:18.657Z,1022.05
2019-04-19T02:44:45.928Z,1022.05
2019-04-19T02:45:29.781Z,1022.09
2019-04-19T02:46:29.800Z,1022.04
2019-04-19T02:46:50.728Z,1022.09
2019-04-19T02:47:38.390Z,1022.07
2019-04-19T02:48:37.856Z,1022.07
2019-04-19T02:49:09.508Z,1022.05
2019-04-19T02:49:55.966Z,1022.09
2019-04-19T02:50:25.802Z,1022.08
2019-04-19T02:51:33.032Z,1022.07
2019-04-19T02:52:15.134Z,1022.08
2019-04-19T02:52:40.760Z,1022.11
2019-04-19T02:53:16.748Z,1022.09
2019-04-19T02:53:54.028Z,1022.08
2019-04-19T02:54:27.019Z,1022.12
2019-04-19T02:55:05.547Z,1022.11
2019-04-19T02:55:41.284Z,1022.10
2019-04-19T02:56:31.516Z,1022.11
2019-04-19T02:57:31.326Z,1022.10
2019-04-19T02:57:54.947Z,1022.08
2019-04-19T02:58:33.797Z,1022.11
2019-04-19T02:59:12.207Z,1022.09
2019-04-19T02:59:47.340Z,1022.08
2019-04-19T03:00:54.497Z,1022.13
2019-04-19T03:01:40.139Z,1022.09
2019-04-19T03:03:49.639Z,1022.11
2019-04-19T03:05:13.240Z,1022.10
2019-04-19T03:05:34.546Z,1022.10
2019-04-19T03:06:03.945Z,1022.14
2019-04-19T03:06:31.415Z,1022.11
2019-04-19T03:07:01.131Z,1022.08
2019-04-19T03:07:34.322Z,1022.04
2019-04-19T03:08:10.303Z,1022.08
2019-04-19T03:08:44.627Z,1022.06
2019-04-19T03:09:20.090Z,1022.08
2019-04-19T03:09:55.603Z,1022.07
2019-04-19T03:10:32.639Z,1022.05
2019-04-19T03:11:19.947Z,1022.07
2019-04-19T03:11:56.567Z,1022.09
2019-04-19T03:12:38.242Z,1022.07
2019-04-19T03:13:09.893Z,1022.10
2019-04-19T03:13:43.178Z,1022.09
2019-04-19T03:14:18.305Z,1022.12
2019-04-19T03:14:50.807Z,1022.12
2019-04-19T03:15:36.368Z,1022.10
2019-04-19T03:16:02.783Z,1022.16
2019-04-19T03:16:43.653Z,1022.15
2019-04-19T03:17:18.867Z,1022.14
2019-04-19T03:17:51.840Z,1022.18
2019-04-19T03:18:29.279Z,1022.18
2019-04-19T03:19:00.817Z,1022.15
2019-04-19T03:19:41.361Z,1022.15
2019-04-19T03:20:10.919Z,1022.17
2019-04-19T03:20:43.182Z,1022.16
2019-04-19T03:21:28.726Z,1022.15
2019-04-19T03:21:57.309Z,1022.19
2019-04-19T03:22:35.700Z,1022.18
2019-04-19T03:23:08.201Z,1022.14
2019-04-19T03:23:36.815Z,1022.15
2019-04-19T03:24:19.249Z,1022.17
2019-04-19T03:24:59.789Z,1022.17
2019-04-19T03:25:27.609Z,1022.19
2019-04-19T03:26:05.743Z,1022.17
2019-04-19T03:26:41.571Z,1022.20
2019-04-19T03:27:09.646Z,1022.19
2019-04-19T03:27:50.571Z,1022.20
2019-04-19T03:28:22.204Z,1022.20
2019-04-19T03:28:54.079Z,1022.17
2019-04-19T03:29:31.046Z,1022.21
2019-04-19T03:30:10.531Z,1022.20
2019-04-19T03:31:06.104Z,1022.23
2019-04-19T03:31:43.205Z,1022.24
2019-04-19T03:32:21.943Z,1022.22
2019-04-19T03:33:09.462Z,1022.24
2019-04-19T03:34:01.015Z,1022.20
2019-04-19T03:35:33.057Z,1022.20
2019-04-19T03:36:13.615Z,1022.22
2019-04-19T03:36:42.621Z,1022.24
2019-04-19T03:37:25.609Z,1022.26
2019-04-19T03:37:57.007Z,1022.26
2019-04-19T03:38:29.503Z,1022.25
2019-04-19T03:39:11.731Z,1022.23
2019-04-19T03:39:44.586Z,1022.22
2019-04-19T03:40:50.631Z,1022.23
2019-04-19T03:41:40.797Z,1022.29
2019-04-19T03:42:06.065Z,1022.27
2019-04-19T03:42:40.807Z,1022.26
2019-04-19T03:43:19.934Z,1022.26
2019-04-19T03:43:51.947Z,1022.27
2019-04-19T03:44:25.315Z,1022.24
2019-04-19T03:45:04.151Z,1022.26
2019-04-19T03:45:33.582Z,1022.28
2019-04-19T03:46:13.517Z,1022.30
2019-04-19T03:46:53.053Z,1022.29
2019-04-19T03:47:21.312Z,1022.26
2019-04-19T03:48:05.231Z,1022.29
2019-04-19T03:48:37.884Z,1022.29
2019-04-19T03:49:08.673Z,1022.32
2019-04-19T03:49:57.218Z,1022.27
2019-04-19T03:50:20.426Z,1022.27
2019-04-19T03:51:00.799Z,1022.32
2019-04-19T03:51:29.058Z,1022.34
2019-04-19T03:52:09.166Z,1022.31
2019-04-19T03:52:42.653Z,1022.36
2019-04-19T03:53:20.256Z,1022.31
2019-04-19T03:54:05.873Z,1022.33
2019-04-19T03:54:23.837Z,1022.32
2019-04-19T03:55:01.396Z,1022.30
2019-04-19T03:55:39.432Z,1022.32
2019-04-19T03:56:30.311Z,1022.31
2019-04-19T03:56:43.712Z,1022.31
2019-04-19T03:57:18.404Z,1022.30
2019-04-19T03:57:49.974Z,1022.33
2019-04-19T03:58:18.523Z,1022.31
2019-04-19T03:58:53.093Z,1022.30
2019-04-19T03:59:26.843Z,1022.31
2019-04-19T04:00:02.758Z,1022.30
2019-04-19T04:00:38.353Z,1022.35
2019-04-19T04:01:12.895Z,1022.30
2019-04-19T04:01:52.749Z,1022.30
2019-04-19T04:02:29.903Z,1022.36
2019-04-19T04:03:01.124Z,1022.32
2019-04-19T04:03:40.397Z,1022.36
2019-04-19T04:04:16.949Z,1022.35
2019-04-19T04:04:52.695Z,1022.37
2019-04-19T04:05:21.510Z,1022.37
2019-04-19T04:05:56.561Z,1022.34
2019-04-19T04:06:36.644Z,1022.35
2019-04-19T04:07:12.597Z,1022.36
2019-04-19T04:07:44.764Z,1022.38
2019-04-19T04:08:21.132Z,1022.37
2019-04-19T04:08:58.470Z,1022.36
2019-04-19T04:09:33.262Z,1022.38
2019-04-19T04:10:04.936Z,1022.40
2019-04-19T04:10:42.382Z,1022.40
2019-04-19T04:11:19.702Z,1022.39
2019-04-19T04:12:00.507Z,1022.39
2019-04-19T04:12:40.179Z,1022.38
2019-04-19T04:13:15.411Z,1022.41
2019-04-19T04:13:46.825Z,1022.42
2019-04-19T04:14:21.996Z,1022.43
2019-04-19T04:15:01.135Z,1022.42
2019-04-19T04:15:38.441Z,1022.42
2019-04-19T04:16:16.486Z,1022.42
2019-04-19T04:16:40.651Z,1022.45
2019-04-19T04:17:09.906Z,1022.42
2019-04-19T04:17:44.251Z,1022.48
2019-04-19T04:18:19.628Z,1022.44
2019-04-19T04:18:55.469Z,1022.45
2019-04-19T04:19:31.494Z,1022.42
2019-04-19T04:20:07.295Z,1022.44
2019-04-19T04:20:45.985Z,1022.44
2019-04-19T04:21:19.660Z,1022.46
2019-04-19T04:21:53.993Z,1022.45
2019-04-19T04:22:31.893Z,1022.42
2019-04-19T04:23:08.067Z,1022.47
2019-04-19T04:23:43.093Z,1022.45
2019-04-19T04:24:23.802Z,1022.45
2019-04-19T04:24:58.300Z,1022.44
2019-04-19T04:25:28.743Z,1022.46
2019-04-19T04:26:04.887Z,1022.43
2019-04-19T04:26:47.214Z,1022.42
2019-04-19T04:27:28.032Z,1022.47
2019-04-19T04:27:56.418Z,1022.49
2019-04-19T04:28:35.239Z,1022.46
2019-04-19T04:29:06.809Z,1022.48
2019-04-19T04:29:38.890Z,1022.47
2019-04-19T04:30:18.554Z,1022.45
2019-04-19T04:30:53.523Z,1022.46
2019-04-19T04:31:27.445Z,1022.46
2019-04-19T04:32:03.493Z,1022.46
2019-04-19T04:32:43.519Z,1022.50
2019-04-19T04:33:13.694Z,1022.48
2019-04-19T04:33:49.369Z,1022.50
2019-04-19T04:34:29.405Z,1022.48
2019-04-19T04:35:02.253Z,1022.50
2019-04-19T04:35:41.395Z,1022.51
2019-04-19T04:36:23.691Z,1022.53
2019-04-19T04:36:50.504Z,1022.55
2019-04-19T04:37:24.767Z,1022.56
2019-04-19T04:37:58.111Z,1022.54
2019-04-19T04:38:29.114Z,1022.55
2019-04-19T04:38:58.565Z,1022.54
2019-04-19T04:39:34.508Z,1022.52
2019-04-19T04:40:08.932Z,1022.59
2019-04-19T04:40:44.418Z,1022.54
2019-04-19T04:41:23.592Z,1022.51
2019-04-19T04:42:06.862Z,1022.56
2019-04-19T04:42:37.461Z,1022.56
2019-04-19T04:43:21.008Z,1022.54
2019-04-19T04:43:56.024Z,1022.59
2019-04-19T04:44:37.023Z,1022.56
2019-04-19T04:45:18.993Z,1022.58
2019-04-19T04:45:55.060Z,1022.59
2019-04-19T04:46:28.486Z,1022.59
2019-04-19T04:47:00.686Z,1022.60
2019-04-19T04:47:28.788Z,1022.60
2019-04-19T04:48:01.263Z,1022.59
2019-04-19T04:48:45.867Z,1022.61
2019-04-19T04:49:25.661Z,1022.61
2019-04-19T04:49:53.553Z,1022.62
2019-04-19T04:50:31.769Z,1022.63
2019-04-19T04:51:04.568Z,1022.62
2019-04-19T04:51:34.700Z,1022.62
2019-04-19T04:52:04.546Z,1022.61
2019-04-19T04:52:34.291Z,1022.63
2019-04-19T04:53:06.689Z,1022.60
2019-04-19T04:53:40.832Z,1022.62
2019-04-19T04:54:16.553Z,1022.63
2019-04-19T04:54:52.447Z,1022.60
2019-04-19T04:55:26.973Z,1022.65
2019-04-19T04:56:05.330Z,1022.62
2019-04-19T04:56:48.646Z,1022.63
2019-04-19T04:57:15.910Z,1022.64
2019-04-19T04:57:53.838Z,1022.63
2019-04-19T04:58:29.913Z,1022.62
2019-04-19T04:59:07.235Z,1022.62
2019-04-19T04:59:34.983Z,1022.62
2019-04-19T05:00:09.864Z,1022.64
2019-04-19T05:00:52.257Z,1022.67
2019-04-19T05:01:30.971Z,1022.66
2019-04-19T05:02:04.554Z,1022.65
2019-04-19T05:02:48.549Z,1022.69
2019-04-19T05:03:23.257Z,1022.72
2019-04-19T05:04:00.750Z,1022.71
2019-04-19T05:04:29.748Z,1022.73
2019-04-19T05:05:10.159Z,1022.74
2019-04-19T05:05:44.797Z,1022.71
2019-04-19T05:06:23.404Z,1022.74
2019-04-19T05:07:01.754Z,1022.72
2019-04-19T05:07:32.743Z,1022.75
2019-04-19T05:08:10.902Z,1022.74
2019-04-19T05:08:43.061Z,1022.76
2019-04-19T05:09:22.573Z,1022.77
2019-04-19T05:09:53.317Z,1022.76
2019-04-19T05:10:24.699Z,1022.74
2019-04-19T05:11:06.482Z,1022.74
2019-04-19T05:11:39.927Z,1022.76
2019-04-19T05:12:25.910Z,1022.77
2019-04-19T05:13:10.636Z,1022.78
2019-04-19T05:13:26.111Z,1022.77
2019-04-19T05:14:00.734Z,1022.79
2019-04-19T05:14:31.614Z,1022.77
2019-04-19T05:15:05.721Z,1022.79
2019-04-19T05:15:49.222Z,1022.81
2019-04-19T05:16:26.551Z,1022.85
2019-04-19T05:17:13.256Z,1022.85
2019-04-19T05:17:44.369Z,1022.88
2019-04-19T05:18:17.297Z,1022.88
2019-04-19T05:18:40.220Z,1022.82
2019-04-19T05:19:19.899Z,1022.82
2019-04-19T05:19:56.649Z,1022.84
2019-04-19T05:20:27.442Z,1022.85
2019-04-19T05:21:02.824Z,1022.86
2019-04-19T05:21:40.052Z,1022.85
2019-04-19T05:22:17.151Z,1022.85
2019-04-19T05:22:55.453Z,1022.83
2019-04-19T05:23:27.188Z,1022.87
2019-04-19T05:24:05.177Z,1022.89
2019-04-19T05:24:46.923Z,1022.88
2019-04-19T05:25:19.271Z,1022.89
2019-04-19T05:25:52.107Z,1022.91
2019-04-19T05:26:37.349Z,1022.88
2019-04-19T05:27:03.792Z,1022.91
2019-04-19T05:27:37.044Z,1022.91
2019-04-19T05:28:14.760Z,1022.92
2019-04-19T05:28:43.452Z,1022.91
2019-04-19T05:29:15.451Z,1022.93
2019-04-19T05:29:42.907Z,1022.91
2019-04-19T05:30:13.230Z,1022.89
2019-04-19T05:30:55.738Z,1022.89
2019-04-19T05:31:32.879Z,1022.95
2019-04-19T05:32:09.236Z,1022.93
2019-04-19T05:32:36.529Z,1022.92
2019-04-19T05:33:18.157Z,1022.92
2019-04-19T05:34:00.555Z,1022.91
2019-04-19T05:34:36.469Z,1022.90
2019-04-19T05:35:08.439Z,1022.92
2019-04-19T05:35:51.306Z,1022.93
2019-04-19T05:36:24.769Z,1022.91
2019-04-19T05:37:01.372Z,1022.92
2019-04-19T05:37:35.275Z,1022.95
2019-04-19T05:38:08.450Z,1022.93
2019-04-19T05:38:51.769Z,1022.93
2019-04-19T05:39:26.360Z,1022.93
2019-04-19T05:39:54.591Z,1022.94
2019-04-19T05:40:27.743Z,1022.98
2019-04-19T05:41:00.712Z,1022.94
2019-04-19T05:41:36.509Z,1022.97
2019-04-19T05:42:12.132Z,1022.99
2019-04-19T05:42:49.201Z,1022.98
2019-04-19T05:43:48.740Z,1022.99
2019-04-19T05:44:14.081Z,1022.96
2019-04-19T05:44:42.380Z,1022.97
2019-04-19T05:45:28.926Z,1023.00
2019-04-19T05:45:58.568Z,1022.99
2019-04-19T05:46:31.832Z,1023.01
2019-04-19T05:47:05.961Z,1023.01
2019-04-19T05:47:26.055Z,1022.99
2019-04-19T05:48:00.455Z,1022.98
2019-04-19T05:48:37.122Z,1022.99
2019-04-19T05:49:14.916Z,1022.98
2019-04-19T05:49:52.051Z,1022.97
2019-04-19T05:50:33.134Z,1023.00
2019-04-19T05:51:16.698Z,1022.99
2019-04-19T05:51:45.685Z,1022.99
2019-04-19T05:52:19.205Z,1022.97
2019-04-19T05:52:51.334Z,1022.96
2019-04-19T05:53:19.856Z,1022.97
2019-04-19T05:53:50.110Z,1022.95
2019-04-19T05:54:21.984Z,1022.91
2019-04-19T05:54:56.123Z,1022.95
2019-04-19T05:55:32.595Z,1022.98
2019-04-19T05:56:07.026Z,1022.97
2019-04-19T05:56:45.971Z,1022.97
2019-04-19T05:57:36.055Z,1023.01
2019-04-19T05:58:05.787Z,1023.00
2019-04-19T05:58:41.337Z,1022.99
2019-04-19T05:59:11.009Z,1023.02
2019-04-19T05:59:50.922Z,1023.00
2019-04-19T06:00:25.972Z,1022.99
2019-04-19T06:01:02.268Z,1022.97
2019-04-19T06:01:43.146Z,1022.97
2019-04-19T06:02:14.863Z,1022.97
2019-04-19T06:02:49.879Z,1022.96
2019-04-19T06:03:21.189Z,1022.95
2019-04-19T06:04:07.637Z,1022.99
2019-04-19T06:04:43.478Z,1022.96
2019-04-19T06:05:38.399Z,1022.96
2019-04-19T06:06:00.918Z,1022.94
2019-04-19T06:06:33.760Z,1022.96
2019-04-19T06:07:05.074Z,1022.97
2019-04-19T06:07:37.402Z,1022.95
2019-04-19T06:08:04.160Z,1022.97
2019-04-19T06:08:34.250Z,1022.98
2019-04-19T06:09:06.883Z,1022.97
2019-04-19T06:09:41.087Z,1022.98
2019-04-19T06:10:17.277Z,1022.96
2019-04-19T06:10:56.673Z,1022.95
2019-04-19T06:11:32.672Z,1022.97
2019-04-19T06:12:11.288Z,1022.98
2019-04-19T06:12:40.476Z,1022.96
2019-04-19T06:13:15.903Z,1023.00
2019-04-19T06:14:03.991Z,1022.99
2019-04-19T06:14:46.430Z,1023.01
2019-04-19T06:15:19.163Z,1023.01
2019-04-19T06:15:55.793Z,1022.99
2019-04-19T06:16:27.711Z,1022.99
2019-04-19T06:16:58.092Z,1023.00
2019-04-19T06:17:38.783Z,1022.99
2019-04-19T06:18:09.473Z,1022.98
2019-04-19T06:18:43.999Z,1023.03
2019-04-19T06:19:27.614Z,1023.00
2019-04-19T06:19:58.547Z,1023.00
2019-04-19T06:20:33.995Z,1023.00
2019-04-19T06:21:46.141Z,1023.03
2019-04-19T06:22:13.181Z,1023.03
2019-04-19T06:22:58.370Z,1023.07
2019-04-19T06:23:38.415Z,1023.05
2019-04-19T06:24:11.858Z,1023.03
2019-04-19T06:24:42.569Z,1023.05
2019-04-19T06:25:17.983Z,1023.03
2019-04-19T06:26:07.673Z,1022.99
2019-04-19T06:27:13.111Z,1023.03
2019-04-19T06:27:55.384Z,1023.07
2019-04-19T06:29:01.660Z,1023.05
2019-04-19T06:29:32.360Z,1023.04
2019-04-19T06:30:05.882Z,1023.05
2019-04-19T06:30:37.130Z,1023.04
2019-04-19T06:31:20.029Z,1023.08
2019-04-19T06:31:55.442Z,1023.11
2019-04-19T06:32:27.257Z,1023.09
2019-04-19T06:33:03.069Z,1023.09
2019-04-19T06:33:32.301Z,1023.09
2019-04-19T06:34:14.870Z,1023.10
2019-04-19T06:34:46.769Z,1023.09
2019-04-19T06:35:14.138Z,1023.12
2019-04-19T06:35:43.466Z,1023.12
2019-04-19T06:36:13.988Z,1023.06
2019-04-19T06:36:58.651Z,1023.13
2019-04-19T06:37:27.678Z,1023.09
2019-04-19T06:37:59.132Z,1023.12
2019-04-19T06:38:33.323Z,1023.10
2019-04-19T06:39:09.771Z,1023.15
2019-04-19T06:39:44.240Z,1023.15
2019-04-19T06:40:25.855Z,1023.13
2019-04-19T06:41:03.422Z,1023.14
2019-04-19T06:41:37.799Z,1023.12
2019-04-19T06:42:09.059Z,1023.18
2019-04-19T06:42:47.920Z,1023.17
2019-04-19T06:43:30.800Z,1023.19
2019-04-19T06:44:07.927Z,1023.21
2019-04-19T06:44:52.791Z,1023.20
2019-04-19T06:45:25.268Z,1023.20
2019-04-19T06:45:55.348Z,1023.18
2019-04-19T06:46:26.783Z,1023.24
2019-04-19T06:47:00.978Z,1023.23
2019-04-19T06:47:30.284Z,1023.18
2019-04-19T06:48:05.344Z,1023.24
2019-04-19T06:48:36.928Z,1023.21
2019-04-19T06:49:16.996Z,1023.19
2019-04-19T06:49:45.712Z,1023.18
2019-04-19T06:50:27.591Z,1023.25
2019-04-19T06:50:59.717Z,1023.26
2019-04-19T06:51:38.967Z,1023.24
2019-04-19T06:52:13.508Z,1023.24
2019-04-19T06:52:42.796Z,1023.25
2019-04-19T06:53:18.754Z,1023.26
2019-04-19T06:53:59.955Z,1023.27
2019-04-19T06:54:35.048Z,1023.23
2019-04-19T06:55:09.821Z,1023.25
2019-04-19T06:55:43.244Z,1023.26
2019-04-19T06:56:19.918Z,1023.25
2019-04-19T06:57:01.705Z,1023.24
2019-04-19T06:57:30.598Z,1023.24
2019-04-19T06:58:07.660Z,1023.30
2019-04-19T06:58:44.562Z,1023.30
2019-04-19T06:59:20.139Z,1023.31
2019-04-19T07:00:00.117Z,1023.30
2019-04-19T07:00:36.323Z,1023.31
2019-04-19T07:01:12.166Z,1023.31
2019-04-19T07:01:39.320Z,1023.34
2019-04-19T07:02:09.191Z,1023.32
2019-04-19T07:02:43.661Z,1023.37
2019-04-19T07:03:19.606Z,1023.39
2019-04-19T07:03:54.093Z,1023.38
2019-04-19T07:04:29.889Z,1023.32
2019-04-19T07:05:18.727Z,1023.36
2019-04-19T07:05:49.863Z,1023.37
2019-04-19T07:06:33.339Z,1023.34
2019-04-19T07:07:11.961Z,1023.42
2019-04-19T07:07:41.840Z,1023.39
2019-04-19T07:08:44.669Z,1023.38
2019-04-19T07:09:07.536Z,1023.44
2019-04-19T07:09:38.802Z,1023.38
2019-04-19T07:10:15.334Z,1023.40
2019-04-19T07:10:50.261Z,1023.43
2019-04-19T07:11:16.459Z,1023.45
2019-04-19T07:11:55.344Z,1023.38
2019-04-19T07:12:31.554Z,1023.41
2019-04-19T07:13:02.936Z,1023.43
2019-04-19T07:13:32.342Z,1023.42
2019-04-19T07:14:03.890Z,1023.43
2019-04-19T07:14:33.665Z,1023.39
2019-04-19T07:15:36.690Z,1023.45
2019-04-19T07:16:07.424Z,1023.42
2019-04-19T07:16:40.608Z,1023.42
2019-04-19T07:17:12.404Z,1023.44
2019-04-19T07:17:46.029Z,1023.44
2019-04-19T07:18:22.409Z,1023.43
2019-04-19T07:18:49.604Z,1023.44
2019-04-19T07:19:35.166Z,1023.46
2019-04-19T07:20:03.166Z,1023.45